Time,TemperatureF,DewpointF,PressureIn,WindDirection,WindDirectionDegrees,WindSpeedMPH,WindSpeedGustMPH,Humidity,HourlyPrecipIn,Conditions,Clouds,dailyrainin,SoftwareType,DateUTC
2013-12-09 00:00:00,31.6,30.1,30.14,ESE,113,0.0,0.0,94,0.00,,,0.00,Wunderground v.1.15,2013-12-09 05:00:00,
2013-12-09 00:01:00,31.6,30.1,30.14,ESE,113,0.0,0.0,94,0.00,,,0.00,Wunderground v.1.15,2013-12-09 05:01:00,
2013-12-09 00:02:00,31.6,30.1,30.13,North,360,0.0,1.0,94,0.00,,,0.00,Wunderground v.1.15,2013-12-09 05:02:00,
2013-12-09 00:03:00,31.7,30.2,30.13,North,9,0.0,1.0,94,0.00,,,0.00,Wunderground v.1.15,2013-12-09 05:03:00,
2013-12-09 00:04:00,31.7,30.2,30.13,ESE,119,0.0,1.0,94,0.00,,,0.00,Wunderground v.1.15,2013-12-09 05:04:00,
2013-12-09 00:10:00,31.8,30.3,30.13,ESE,121,0.0,0.0,94,0.00,,,0.00,Wunderground v.1.15,2013-12-09 05:10:00,
2013-12-09 00:15:00,31.9,30.4,30.13,East,90,0.0,0.0,94,0.00,,,0.00,Wunderground v.1.15,2013-12-09 05:15:00,
2013-12-09 00:16:00,31.9,30.4,30.13,East,90,0.0,0.0,94,0.00,,,0.00,Wunderground v.1.15,2013-12-09 05:16:00,
2013-12-09 00:21:00,32.0,30.5,30.12,North,355,0.0,1.0,94,0.00,,,0.00,Wunderground v.1.15,2013-12-09 05:21:00,
2013-12-09 00:22:00,31.9,30.4,30.12,North,355,0.0,1.0,94,0.00,,,0.00,Wunderground v.1.15,2013-12-09 05:22:00,
2013-12-09 00:28:00,32.0,30.5,30.11,North,355,0.0,1.0,94,0.00,,,0.00,Wunderground v.1.15,2013-12-09 05:28:00,
2013-12-09 00:33:00,32.1,30.6,30.11,North,355,0.0,0.0,94,0.00,,,0.00,Wunderground v.1.15,2013-12-09 05:33:00,
2013-12-09 00:38:00,32.1,30.6,30.11,North,355,0.0,0.0,94,0.00,,,0.00,Wunderground v.1.15,2013-12-09 05:38:00,
2013-12-09 00:43:00,32.2,30.7,30.10,North,355,0.0,0.0,94,0.00,,,0.00,Wunderground v.1.15,2013-12-09 05:43:00,
2013-12-09 00:48:00,32.3,30.8,30.10,North,355,0.0,0.0,94,0.00,,,0.00,Wunderground v.1.15,2013-12-09 05:48:00,
2013-12-09 00:53:00,32.3,30.8,30.10,North,355,0.0,0.0,94,0.00,,,0.00,Wunderground v.1.15,2013-12-09 05:53:00,
2013-12-09 00:59:00,32.4,30.9,30.09,North,355,0.0,0.0,94,0.00,,,0.00,Wunderground v.1.15,2013-12-09 05:59:00,
2013-12-09 01:04:00,32.4,31.1,30.09,North,355,0.0,0.0,95,0.00,,,0.00,Wunderground v.1.15,2013-12-09 06:04:00,
2013-12-09 01:09:00,32.5,31.2,30.09,North,355,0.0,0.0,95,0.00,,,0.00,Wunderground v.1.15,2013-12-09 06:09:00,
2013-12-09 01:14:00,32.6,31.3,30.09,North,355,0.0,0.0,95,0.00,,,0.00,Wunderground v.1.15,2013-12-09 06:14:00,
2013-12-09 01:20:00,32.7,31.4,30.08,North,355,0.0,0.0,95,0.00,,,0.00,Wunderground v.1.15,2013-12-09 06:20:00,
2013-12-09 01:25:00,32.8,31.5,30.08,North,355,0.0,0.0,95,0.00,,,0.00,Wunderground v.1.15,2013-12-09 06:25:00,
2013-12-09 01:30:00,32.9,31.6,30.08,North,11,0.0,0.0,95,0.00,,,0.00,Wunderground v.1.15,2013-12-09 06:30:00,
2013-12-09 01:35:00,33.0,31.7,30.08,North,11,0.0,0.0,95,0.00,,,0.00,Wunderground v.1.15,2013-12-09 06:35:00,
2013-12-09 01:40:00,33.1,31.8,30.07,North,11,0.0,0.0,95,0.00,,,0.00,Wunderground v.1.15,2013-12-09 06:40:00,
2013-12-09 01:46:00,33.2,31.9,30.07,North,11,0.0,0.0,95,0.00,,,0.00,Wunderground v.1.15,2013-12-09 06:46:00,
2013-12-09 01:52:00,33.2,31.9,30.07,North,11,0.0,0.0,95,0.00,,,0.00,Wunderground v.1.15,2013-12-09 06:52:00,
2013-12-09 01:57:00,33.3,32.0,30.07,North,11,0.0,0.0,95,0.00,,,0.00,Wunderground v.1.15,2013-12-09 06:57:00,
2013-12-09 02:03:00,33.3,32.0,30.07,North,11,0.0,0.0,95,0.00,,,0.00,Wunderground v.1.15,2013-12-09 07:03:00,
2013-12-09 02:09:00,33.3,32.0,30.06,North,11,0.0,0.0,95,0.00,,,0.00,Wunderground v.1.15,2013-12-09 07:09:00,
2013-12-09 02:14:00,33.4,32.1,30.07,North,11,0.0,0.0,95,0.00,,,0.00,Wunderground v.1.15,2013-12-09 07:14:00,
2013-12-09 02:20:00,33.5,32.2,30.06,North,11,0.0,0.0,95,0.00,,,0.00,Wunderground v.1.15,2013-12-09 07:20:00,
2013-12-09 02:25:00,33.4,32.1,30.06,North,11,0.0,0.0,95,0.00,,,0.00,Wunderground v.1.15,2013-12-09 07:25:00,
2013-12-09 02:30:00,33.4,32.1,30.06,North,11,0.0,0.0,95,0.00,,,0.00,Wunderground v.1.15,2013-12-09 07:30:00,
2013-12-09 02:36:00,33.5,32.2,30.05,NNE,22,0.0,0.0,95,0.00,,,0.00,Wunderground v.1.15,2013-12-09 07:36:00,
2013-12-09 02:41:00,33.6,32.3,30.05,NNE,22,0.0,0.0,95,0.00,,,0.00,Wunderground v.1.15,2013-12-09 07:41:00,
2013-12-09 02:46:00,33.6,32.3,30.05,NNE,22,0.0,0.0,95,0.00,,,0.00,Wunderground v.1.15,2013-12-09 07:46:00,
2013-12-09 02:52:00,33.7,32.4,30.05,NNE,27,0.0,0.0,95,0.00,,,0.00,Wunderground v.1.15,2013-12-09 07:52:00,
2013-12-09 02:57:00,33.8,32.5,30.05,ENE,71,0.0,0.0,95,0.00,,,0.00,Wunderground v.1.15,2013-12-09 07:57:00,
2013-12-09 03:02:00,33.8,32.5,30.05,ENE,71,0.0,0.0,95,0.00,,,0.00,Wunderground v.1.15,2013-12-09 08:02:00,
2013-12-09 03:07:00,33.9,32.6,30.04,ENE,71,0.0,0.0,95,0.00,,,0.00,Wunderground v.1.15,2013-12-09 08:07:00,
2013-12-09 03:13:00,34.0,32.7,30.05,ENE,72,0.0,0.0,95,0.00,,,0.00,Wunderground v.1.15,2013-12-09 08:13:00,
2013-12-09 03:18:00,33.9,32.6,30.05,ENE,72,0.0,0.0,95,0.00,,,0.00,Wunderground v.1.15,2013-12-09 08:18:00,
2013-12-09 03:23:00,33.8,32.5,30.05,ENE,72,0.0,0.0,95,0.00,,,0.00,Wunderground v.1.15,2013-12-09 08:23:00,
2013-12-09 03:28:00,33.7,32.4,30.05,ENE,72,0.0,0.0,95,0.00,,,0.00,Wunderground v.1.15,2013-12-09 08:28:00,
2013-12-09 03:34:00,33.6,32.3,30.05,ENE,71,0.0,0.0,95,0.00,,,0.00,Wunderground v.1.15,2013-12-09 08:34:00,
2013-12-09 03:39:00,33.5,32.2,30.05,ENE,72,0.0,0.0,95,0.00,,,0.00,Wunderground v.1.15,2013-12-09 08:39:00,
2013-12-09 03:44:00,33.4,32.1,30.04,ENE,71,0.0,0.0,95,0.00,,,0.00,Wunderground v.1.15,2013-12-09 08:44:00,
2013-12-09 03:49:00,33.4,32.1,30.04,ENE,72,0.0,0.0,95,0.00,,,0.00,Wunderground v.1.15,2013-12-09 08:49:00,
2013-12-09 03:55:00,33.4,32.1,30.04,ENE,72,0.0,0.0,95,0.00,,,0.00,Wunderground v.1.15,2013-12-09 08:55:00,
2013-12-09 04:00:00,33.4,32.1,30.03,ENE,71,0.0,0.0,95,0.00,,,0.00,Wunderground v.1.15,2013-12-09 09:00:00,
2013-12-09 04:06:00,33.3,32.0,30.03,ENE,72,0.0,0.0,95,0.00,,,0.00,Wunderground v.1.15,2013-12-09 09:06:00,
2013-12-09 04:11:00,33.3,32.0,30.03,ENE,72,0.0,0.0,95,0.00,,,0.00,Wunderground v.1.15,2013-12-09 09:11:00,
2013-12-09 04:14:00,33.4,32.1,30.03,ENE,71,0.0,0.0,95,0.00,,,0.00,Wunderground v.1.15,2013-12-09 09:14:00,
2013-12-09 04:19:00,33.5,32.2,30.04,ENE,71,0.0,0.0,95,0.00,,,0.00,Wunderground v.1.15,2013-12-09 09:19:00,
2013-12-09 04:24:00,33.5,32.2,30.04,ENE,72,0.0,0.0,95,0.00,,,0.00,Wunderground v.1.15,2013-12-09 09:24:00,
2013-12-09 04:29:00,33.5,32.2,30.03,ENE,72,0.0,0.0,95,0.00,,,0.00,Wunderground v.1.15,2013-12-09 09:29:00,
2013-12-09 04:34:00,33.4,32.4,30.03,ENE,72,0.0,0.0,96,0.00,,,0.00,Wunderground v.1.15,2013-12-09 09:34:00,
2013-12-09 04:40:00,33.4,32.1,30.03,ENE,71,0.0,0.0,95,0.00,,,0.00,Wunderground v.1.15,2013-12-09 09:40:00,
2013-12-09 04:45:00,33.3,32.0,30.03,ENE,72,0.0,0.0,95,0.00,,,0.00,Wunderground v.1.15,2013-12-09 09:45:00,
2013-12-09 04:50:00,33.3,32.0,30.03,ENE,72,0.0,0.0,95,0.00,,,0.00,Wunderground v.1.15,2013-12-09 09:50:00,
2013-12-09 04:56:00,33.3,32.0,30.03,ENE,72,0.0,0.0,95,0.00,,,0.00,Wunderground v.1.15,2013-12-09 09:56:00,
2013-12-09 05:01:00,33.3,32.0,30.03,ENE,72,0.0,0.0,95,0.00,,,0.00,Wunderground v.1.15,2013-12-09 10:01:00,
2013-12-09 05:06:00,33.3,32.0,30.03,ENE,72,0.0,0.0,95,0.00,,,0.00,Wunderground v.1.15,2013-12-09 10:06:00,
2013-12-09 05:12:00,33.3,32.3,30.02,ENE,72,0.0,0.0,96,0.00,,,0.00,Wunderground v.1.15,2013-12-09 10:12:00,
2013-12-09 05:17:00,33.3,32.3,30.02,ENE,72,0.0,0.0,96,0.00,,,0.00,Wunderground v.1.15,2013-12-09 10:17:00,
2013-12-09 05:23:00,33.4,32.1,30.02,SSW,207,0.0,0.0,95,0.00,,,0.00,Wunderground v.1.15,2013-12-09 10:23:00,
2013-12-09 05:28:00,33.7,32.7,30.02,SSW,204,0.0,0.0,96,0.00,,,0.00,Wunderground v.1.15,2013-12-09 10:28:00,
2013-12-09 05:33:00,34.1,33.1,30.02,SSW,204,0.0,0.0,96,0.00,,,0.00,Wunderground v.1.15,2013-12-09 10:33:00,
2013-12-09 05:38:00,34.3,33.3,30.02,SSW,204,0.0,0.0,96,0.00,,,0.00,Wunderground v.1.15,2013-12-09 10:38:00,
2013-12-09 05:43:00,34.6,33.6,30.02,SSW,204,0.0,0.0,96,0.00,,,0.00,Wunderground v.1.15,2013-12-09 10:43:00,
2013-12-09 05:49:00,35.0,34.0,30.01,SSW,204,0.0,0.0,96,0.00,,,0.00,Wunderground v.1.15,2013-12-09 10:49:00,
2013-12-09 05:54:00,35.0,34.0,30.01,SSW,203,0.0,0.0,96,0.00,,,0.00,Wunderground v.1.15,2013-12-09 10:54:00,
2013-12-09 05:59:00,35.0,34.0,30.02,SSW,204,0.0,0.0,96,0.00,,,0.00,Wunderground v.1.15,2013-12-09 10:59:00,
2013-12-09 06:04:00,35.0,34.0,30.02,SSW,204,0.0,0.0,96,0.00,,,0.00,Wunderground v.1.15,2013-12-09 11:04:00,
2013-12-09 06:09:00,34.9,33.9,30.02,SSW,204,0.0,0.0,96,0.00,,,0.00,Wunderground v.1.15,2013-12-09 11:09:00,
2013-12-09 06:13:00,34.8,33.8,30.02,SSW,204,0.0,0.0,96,0.00,,,0.00,Wunderground v.1.15,2013-12-09 11:13:00,
2013-12-09 06:18:00,34.6,33.6,30.02,SSW,204,0.0,0.0,96,0.00,,,0.00,Wunderground v.1.15,2013-12-09 11:18:00,
2013-12-09 06:24:00,34.4,33.4,30.02,SSW,204,0.0,0.0,96,0.00,,,0.00,Wunderground v.1.15,2013-12-09 11:24:00,
2013-12-09 06:29:00,34.3,33.3,30.03,SSW,204,0.0,0.0,96,0.00,,,0.00,Wunderground v.1.15,2013-12-09 11:29:00,
2013-12-09 06:34:00,34.3,33.3,30.03,SSW,204,0.0,0.0,96,0.00,,,0.00,Wunderground v.1.15,2013-12-09 11:34:00,
2013-12-09 06:39:00,34.3,33.3,30.04,SSW,204,0.0,0.0,96,0.00,,,0.00,Wunderground v.1.15,2013-12-09 11:39:00,
2013-12-09 06:44:00,34.3,33.3,30.04,SSW,204,0.0,0.0,96,0.00,,,0.00,Wunderground v.1.15,2013-12-09 11:44:00,
2013-12-09 06:49:00,34.4,33.4,30.04,SSW,204,0.0,0.0,96,0.00,,,0.00,Wunderground v.1.15,2013-12-09 11:49:00,
2013-12-09 06:55:00,34.3,33.3,30.05,SSW,204,0.0,0.0,96,0.00,,,0.00,Wunderground v.1.15,2013-12-09 11:55:00,
2013-12-09 07:00:00,34.3,33.3,30.05,SSW,204,0.0,0.0,96,0.00,,,0.00,Wunderground v.1.15,2013-12-09 12:00:00,
2013-12-09 07:06:00,34.3,33.3,30.05,SSW,204,0.0,0.0,96,0.00,,,0.00,Wunderground v.1.15,2013-12-09 12:06:00,
2013-12-09 07:11:00,34.3,33.3,30.05,SSW,204,0.0,0.0,96,0.00,,,0.00,Wunderground v.1.15,2013-12-09 12:11:00,
2013-12-09 07:16:00,34.3,33.3,30.05,SSW,204,0.0,0.0,96,0.00,,,0.00,Wunderground v.1.15,2013-12-09 12:16:00,
2013-12-09 07:21:00,34.2,33.2,30.05,SSW,204,0.0,0.0,96,0.00,,,0.00,Wunderground v.1.15,2013-12-09 12:21:00,
2013-12-09 07:27:00,34.2,33.2,30.05,SSW,204,0.0,0.0,96,0.00,,,0.00,Wunderground v.1.15,2013-12-09 12:27:00,
2013-12-09 07:32:00,34.3,33.3,30.06,SSW,204,0.0,0.0,96,0.00,,,0.00,Wunderground v.1.15,2013-12-09 12:32:00,
2013-12-09 07:37:00,34.3,33.3,30.06,SSW,204,0.0,0.0,96,0.00,,,0.00,Wunderground v.1.15,2013-12-09 12:37:00,
2013-12-09 07:42:00,34.4,33.4,30.05,SSW,204,0.0,0.0,96,0.00,,,0.00,Wunderground v.1.15,2013-12-09 12:42:00,
2013-12-09 07:47:00,34.4,33.4,30.05,SSW,204,0.0,0.0,96,0.00,,,0.00,Wunderground v.1.15,2013-12-09 12:47:00,
2013-12-09 07:52:00,34.6,33.6,30.05,SSW,204,0.0,0.0,96,0.00,,,0.00,Wunderground v.1.15,2013-12-09 12:52:00,
2013-12-09 07:57:00,34.9,33.9,30.05,SSW,204,0.0,1.0,96,0.00,,,0.00,Wunderground v.1.15,2013-12-09 12:57:00,
2013-12-09 08:03:00,35.1,34.1,30.05,SSW,204,0.0,0.0,96,0.00,,,0.00,Wunderground v.1.15,2013-12-09 13:03:00,
2013-12-09 08:08:00,35.3,34.3,30.05,SSW,204,0.0,0.0,96,0.00,,,0.00,Wunderground v.1.15,2013-12-09 13:08:00,
2013-12-09 08:13:00,35.5,34.5,30.05,SSW,204,0.0,0.0,96,0.00,,,0.00,Wunderground v.1.15,2013-12-09 13:13:00,
2013-12-09 08:18:00,35.7,34.7,30.06,SSW,204,0.0,0.0,96,0.00,,,0.00,Wunderground v.1.15,2013-12-09 13:18:00,
2013-12-09 08:24:00,35.8,34.8,30.05,SSW,204,0.0,0.0,96,0.00,,,0.00,Wunderground v.1.15,2013-12-09 13:24:00,
2013-12-09 08:29:00,35.9,34.9,30.05,SSW,204,0.0,0.0,96,0.00,,,0.01,Wunderground v.1.15,2013-12-09 13:29:00,
2013-12-09 08:34:00,36.1,35.1,30.05,SSW,204,0.0,0.0,96,0.00,,,0.01,Wunderground v.1.15,2013-12-09 13:34:00,
2013-12-09 08:39:00,36.2,35.2,30.05,SSW,204,0.0,0.0,96,0.00,,,0.01,Wunderground v.1.15,2013-12-09 13:39:00,
2013-12-09 08:44:00,36.1,35.1,30.06,SSW,204,0.0,0.0,96,0.00,,,0.01,Wunderground v.1.15,2013-12-09 13:44:00,
2013-12-09 08:50:00,36.2,35.2,30.06,NNE,19,0.0,0.0,96,0.00,,,0.01,Wunderground v.1.15,2013-12-09 13:50:00,
2013-12-09 08:55:00,36.3,35.3,30.06,NNE,19,0.0,0.0,96,0.00,,,0.01,Wunderground v.1.15,2013-12-09 13:55:00,
2013-12-09 09:00:00,36.4,35.4,30.06,NNE,19,0.0,0.0,96,0.00,,,0.01,Wunderground v.1.15,2013-12-09 14:00:00,
2013-12-09 09:06:00,36.5,35.5,30.06,NNE,19,0.0,0.0,96,0.00,,,0.01,Wunderground v.1.15,2013-12-09 14:06:00,
2013-12-09 09:11:00,36.7,35.7,30.06,NE,35,0.0,0.0,96,0.00,,,0.01,Wunderground v.1.15,2013-12-09 14:11:00,
2013-12-09 09:17:00,36.9,35.9,30.06,NE,35,0.0,0.0,96,0.00,,,0.01,Wunderground v.1.15,2013-12-09 14:17:00,
2013-12-09 09:22:00,36.8,35.8,30.07,NE,35,0.0,0.0,96,0.00,,,0.01,Wunderground v.1.15,2013-12-09 14:22:00,
2013-12-09 09:27:00,37.0,36.0,30.06,NE,35,0.0,0.0,96,0.00,,,0.01,Wunderground v.1.15,2013-12-09 14:27:00,
2013-12-09 09:32:00,36.9,35.9,30.06,NE,35,0.0,0.0,96,0.00,,,0.01,Wunderground v.1.15,2013-12-09 14:32:00,
2013-12-09 09:38:00,36.9,35.9,30.07,NE,35,0.0,0.0,96,0.00,,,0.01,Wunderground v.1.15,2013-12-09 14:38:00,
2013-12-09 09:43:00,37.1,36.1,30.07,NE,35,0.0,0.0,96,0.00,,,0.01,Wunderground v.1.15,2013-12-09 14:43:00,
2013-12-09 09:49:00,37.1,36.1,30.08,NE,35,0.0,0.0,96,0.00,,,0.01,Wunderground v.1.15,2013-12-09 14:49:00,
2013-12-09 09:54:00,37.1,36.1,30.08,South,178,0.0,2.0,96,0.00,,,0.01,Wunderground v.1.15,2013-12-09 14:54:00,
2013-12-09 09:59:00,37.1,36.1,30.08,South,178,0.0,2.0,96,0.00,,,0.01,Wunderground v.1.15,2013-12-09 14:59:00,
2013-12-09 10:05:00,37.2,36.2,30.08,East,101,0.0,0.0,96,0.00,,,0.01,Wunderground v.1.15,2013-12-09 15:05:00,
2013-12-09 10:11:00,37.2,36.2,30.08,East,101,0.0,0.0,96,0.00,,,0.01,Wunderground v.1.15,2013-12-09 15:11:00,
2013-12-09 10:16:00,37.2,36.2,30.08,East,101,0.0,0.0,96,0.00,,,0.01,Wunderground v.1.15,2013-12-09 15:16:00,
2013-12-09 10:21:00,37.1,36.1,30.08,East,101,0.0,0.0,96,0.00,,,0.01,Wunderground v.1.15,2013-12-09 15:21:00,
2013-12-09 10:26:00,37.2,36.2,30.08,East,101,0.0,0.0,96,0.00,,,0.01,Wunderground v.1.15,2013-12-09 15:26:00,
2013-12-09 10:31:00,37.2,36.2,30.08,East,101,0.0,0.0,96,0.00,,,0.01,Wunderground v.1.15,2013-12-09 15:31:00,
2013-12-09 10:37:00,37.2,36.2,30.08,East,101,0.0,0.0,96,0.00,,,0.01,Wunderground v.1.15,2013-12-09 15:37:00,
2013-12-09 10:42:00,37.3,36.3,30.08,SE,131,0.0,0.0,96,0.00,,,0.01,Wunderground v.1.15,2013-12-09 15:42:00,
2013-12-09 10:47:00,37.4,36.4,30.09,ENE,59,0.0,1.0,96,0.00,,,0.01,Wunderground v.1.15,2013-12-09 15:47:00,
2013-12-09 10:52:00,37.4,36.4,30.09,ENE,59,0.0,0.0,96,0.00,,,0.01,Wunderground v.1.15,2013-12-09 15:52:00,
2013-12-09 10:57:00,37.3,36.3,30.09,SE,129,0.0,0.0,96,0.00,,,0.01,Wunderground v.1.15,2013-12-09 15:57:00,
2013-12-09 11:03:00,37.2,36.2,30.09,East,101,0.0,2.0,96,0.00,,,0.01,Wunderground v.1.15,2013-12-09 16:03:00,
2013-12-09 11:08:00,37.2,36.2,30.09,West,272,1.0,3.0,96,0.00,,,0.01,Wunderground v.1.15,2013-12-09 16:08:00,
2013-12-09 11:13:00,37.2,36.2,30.09,South,189,1.0,3.0,96,0.00,,,0.01,Wunderground v.1.15,2013-12-09 16:13:00,
2013-12-09 11:18:00,37.2,36.2,30.08,ESE,108,1.0,3.0,96,0.00,,,0.01,Wunderground v.1.15,2013-12-09 16:18:00,
2013-12-09 11:23:00,37.1,36.1,30.08,NE,55,1.0,3.0,96,0.00,,,0.01,Wunderground v.1.15,2013-12-09 16:23:00,
2013-12-09 11:29:00,37.0,35.7,30.08,SSE,150,0.0,3.0,95,0.00,,,0.01,Wunderground v.1.15,2013-12-09 16:29:00,
2013-12-09 11:35:00,36.9,35.6,30.08,ESE,104,0.0,1.0,95,0.00,,,0.01,Wunderground v.1.15,2013-12-09 16:35:00,
2013-12-09 11:40:00,36.9,35.6,30.09,South,173,0.0,0.0,95,0.00,,,0.01,Wunderground v.1.15,2013-12-09 16:40:00,
2013-12-09 11:45:00,37.0,35.7,30.09,South,173,0.0,0.0,95,0.00,,,0.01,Wunderground v.1.15,2013-12-09 16:45:00,
2013-12-09 11:50:00,37.1,35.8,30.09,SE,134,0.0,0.0,95,0.00,,,0.01,Wunderground v.1.15,2013-12-09 16:50:00,
2013-12-09 11:56:00,37.3,36.0,30.09,SE,134,0.0,0.0,95,0.00,,,0.01,Wunderground v.1.15,2013-12-09 16:56:00,
2013-12-09 12:02:00,37.4,35.8,30.09,SE,133,0.0,1.0,94,0.00,,,0.01,Wunderground v.1.15,2013-12-09 17:02:00,
2013-12-09 12:07:00,37.6,36.0,30.09,East,86,0.0,1.0,94,0.00,,,0.01,Wunderground v.1.15,2013-12-09 17:07:00,
2013-12-09 12:12:00,37.7,36.1,30.09,East,86,0.0,0.0,94,0.00,,,0.01,Wunderground v.1.15,2013-12-09 17:12:00,
2013-12-09 12:17:00,37.9,36.1,30.09,East,87,0.0,0.0,93,0.00,,,0.01,Wunderground v.1.15,2013-12-09 17:17:00,
2013-12-09 12:23:00,38.0,36.2,30.10,South,179,0.0,0.0,93,0.00,,,0.01,Wunderground v.1.15,2013-12-09 17:23:00,
2013-12-09 12:28:00,38.0,35.9,30.10,South,183,0.0,1.0,92,0.00,,,0.01,Wunderground v.1.15,2013-12-09 17:28:00,
2013-12-09 12:33:00,38.0,35.6,30.09,SSE,152,0.0,1.0,91,0.00,,,0.01,Wunderground v.1.15,2013-12-09 17:33:00,
2013-12-09 12:38:00,37.9,35.5,30.09,South,180,1.0,5.0,91,0.00,,,0.01,Wunderground v.1.15,2013-12-09 17:38:00,
2013-12-09 12:43:00,37.8,35.1,30.10,ESE,121,1.0,1.0,90,0.00,,,0.01,Wunderground v.1.15,2013-12-09 17:43:00,
2013-12-09 12:49:00,37.9,35.2,30.10,North,5,1.0,1.0,90,0.00,,,0.01,Wunderground v.1.15,2013-12-09 17:49:00,
2013-12-09 12:54:00,38.0,35.0,30.10,ESE,117,1.0,3.0,89,0.00,,,0.01,Wunderground v.1.15,2013-12-09 17:54:00,
2013-12-09 12:59:00,38.0,35.0,30.09,SE,136,1.0,3.0,89,0.00,,,0.01,Wunderground v.1.15,2013-12-09 17:59:00,
2013-12-09 13:05:00,38.0,35.0,30.09,SSE,163,1.0,2.0,89,0.00,,,0.01,Wunderground v.1.15,2013-12-09 18:05:00,
2013-12-09 13:10:00,37.9,34.7,30.09,ESE,108,1.0,2.0,88,0.00,,,0.01,Wunderground v.1.15,2013-12-09 18:10:00,
2013-12-09 13:15:00,37.8,34.6,30.09,SE,131,1.0,2.0,88,0.00,,,0.01,Wunderground v.1.15,2013-12-09 18:15:00,
2013-12-09 13:21:00,37.7,34.2,30.09,SSE,152,1.0,2.0,87,0.00,,,0.01,Wunderground v.1.15,2013-12-09 18:21:00,
2013-12-09 13:27:00,37.6,34.1,30.09,SE,128,1.0,2.0,87,0.00,,,0.01,Wunderground v.1.15,2013-12-09 18:27:00,
2013-12-09 13:32:00,37.6,33.8,30.09,SE,143,1.0,5.0,86,0.00,,,0.01,Wunderground v.1.15,2013-12-09 18:32:00,
2013-12-09 13:37:00,37.5,34.0,30.09,ESE,105,1.0,5.0,87,0.00,,,0.01,Wunderground v.1.15,2013-12-09 18:37:00,
2013-12-09 13:42:00,37.5,33.7,30.09,SW,236,1.0,1.0,86,0.00,,,0.01,Wunderground v.1.15,2013-12-09 18:42:00,
2013-12-09 13:47:00,37.4,33.0,30.09,SE,133,1.0,3.0,84,0.00,,,0.01,Wunderground v.1.15,2013-12-09 18:47:00,
2013-12-09 13:52:00,37.3,33.2,30.09,SSE,163,1.0,3.0,85,0.00,,,0.01,Wunderground v.1.15,2013-12-09 18:52:00,
2013-12-09 13:58:00,37.2,33.4,30.09,SE,126,0.0,3.0,86,0.00,,,0.01,Wunderground v.1.15,2013-12-09 18:58:00,
2013-12-09 14:03:00,37.1,33.0,30.08,SE,136,1.0,1.0,85,0.00,,,0.01,Wunderground v.1.15,2013-12-09 19:03:00,
2013-12-09 14:08:00,36.9,32.8,30.08,SSE,150,1.0,1.0,85,0.00,,,0.01,Wunderground v.1.15,2013-12-09 19:08:00,
2013-12-09 14:14:00,36.7,32.9,30.08,ESE,107,0.0,1.0,86,0.00,,,0.01,Wunderground v.1.15,2013-12-09 19:14:00,
2013-12-09 14:19:00,36.6,32.5,30.08,ESE,107,0.0,1.0,85,0.00,,,0.01,Wunderground v.1.15,2013-12-09 19:19:00,
2013-12-09 14:24:00,36.4,32.6,30.08,East,89,0.0,0.0,86,0.00,,,0.01,Wunderground v.1.15,2013-12-09 19:24:00,
2013-12-09 14:29:00,36.3,32.5,30.08,ESE,115,0.0,2.0,86,0.00,,,0.01,Wunderground v.1.15,2013-12-09 19:29:00,
2013-12-09 14:35:00,36.2,32.7,30.08,SE,129,0.0,1.0,87,0.00,,,0.01,Wunderground v.1.15,2013-12-09 19:35:00,
2013-12-09 14:40:00,36.1,32.6,30.08,SE,129,0.0,0.0,87,0.00,,,0.01,Wunderground v.1.15,2013-12-09 19:40:00,
2013-12-09 14:45:00,36.0,32.5,30.08,SE,128,0.0,2.0,87,0.00,,,0.01,Wunderground v.1.15,2013-12-09 19:45:00,
2013-12-09 14:51:00,35.9,32.4,30.09,ESE,121,1.0,1.0,87,0.00,,,0.01,Wunderground v.1.15,2013-12-09 19:51:00,
2013-12-09 14:56:00,35.8,32.3,30.09,ESE,121,0.0,1.0,87,0.00,,,0.01,Wunderground v.1.15,2013-12-09 19:56:00,
2013-12-09 15:02:00,35.8,32.6,30.09,SW,227,0.0,1.0,88,0.00,,,0.01,Wunderground v.1.15,2013-12-09 20:02:00,
2013-12-09 15:07:00,35.7,32.8,30.09,East,95,0.0,1.0,89,0.00,,,0.01,Wunderground v.1.15,2013-12-09 20:07:00,
2013-12-09 15:13:00,35.6,32.7,30.09,East,95,0.0,0.0,89,0.00,,,0.01,Wunderground v.1.15,2013-12-09 20:13:00,
2013-12-09 15:18:00,35.6,32.4,30.10,East,95,0.0,0.0,88,0.00,,,0.01,Wunderground v.1.15,2013-12-09 20:18:00,
2013-12-09 15:23:00,35.6,32.4,30.10,East,95,0.0,1.0,88,0.00,,,0.01,Wunderground v.1.15,2013-12-09 20:23:00,
2013-12-09 15:29:00,35.7,32.5,30.10,SSE,161,0.0,1.0,88,0.00,,,0.01,Wunderground v.1.15,2013-12-09 20:29:00,
2013-12-09 15:34:00,35.7,32.2,30.10,SSE,159,0.0,0.0,87,0.00,,,0.01,Wunderground v.1.15,2013-12-09 20:34:00,
2013-12-09 15:39:00,35.7,32.2,30.10,East,100,0.0,1.0,87,0.00,,,0.01,Wunderground v.1.15,2013-12-09 20:39:00,
2013-12-09 15:44:00,35.8,31.7,30.10,NNE,33,0.0,1.0,85,0.00,,,0.01,Wunderground v.1.15,2013-12-09 20:44:00,
2013-12-09 15:49:00,35.8,31.7,30.10,ESE,109,0.0,2.0,85,0.00,,,0.01,Wunderground v.1.15,2013-12-09 20:49:00,
2013-12-09 15:54:00,35.7,31.6,30.10,SE,145,1.0,4.0,85,0.00,,,0.01,Wunderground v.1.15,2013-12-09 20:54:00,
2013-12-09 15:59:00,35.7,31.6,30.11,SE,145,1.0,4.0,85,0.00,,,0.01,Wunderground v.1.15,2013-12-09 20:59:00,
2013-12-09 16:05:00,35.6,31.2,30.12,ESE,111,0.0,1.0,84,0.00,,,0.01,Wunderground v.1.15,2013-12-09 21:05:00,
2013-12-09 16:10:00,35.6,31.2,30.12,East,101,0.0,0.0,84,0.00,,,0.01,Wunderground v.1.15,2013-12-09 21:10:00,
2013-12-09 16:15:00,35.6,31.2,30.12,ESE,119,0.0,1.0,84,0.00,,,0.01,Wunderground v.1.15,2013-12-09 21:15:00,
2013-12-09 16:20:00,35.5,31.1,30.11,ESE,119,0.0,0.0,84,0.00,,,0.01,Wunderground v.1.15,2013-12-09 21:20:00,
2013-12-09 16:26:00,35.4,31.3,30.11,ESE,119,0.0,2.0,85,0.00,,,0.01,Wunderground v.1.15,2013-12-09 21:26:00,
2013-12-09 16:31:00,35.3,31.2,30.12,ENE,75,0.0,0.0,85,0.00,,,0.01,Wunderground v.1.15,2013-12-09 21:31:00,
2013-12-09 16:37:00,35.2,31.1,30.12,East,82,0.0,2.0,85,0.00,,,0.01,Wunderground v.1.15,2013-12-09 21:37:00,
2013-12-09 16:42:00,35.2,30.9,30.12,ESE,109,0.0,0.0,84,0.00,,,0.01,Wunderground v.1.15,2013-12-09 21:42:00,
2013-12-09 16:47:00,35.1,31.3,30.12,ESE,109,0.0,0.0,86,0.00,,,0.01,Wunderground v.1.15,2013-12-09 21:47:00,
2013-12-09 16:52:00,35.0,30.9,30.12,ESE,109,0.0,1.0,85,0.00,,,0.01,Wunderground v.1.15,2013-12-09 21:52:00,
2013-12-09 16:57:00,34.9,31.1,30.13,ESE,109,0.0,1.0,86,0.00,,,0.01,Wunderground v.1.15,2013-12-09 21:57:00,
2013-12-09 17:03:00,34.8,31.0,30.13,NW,315,0.0,2.0,86,0.00,,,0.01,Wunderground v.1.15,2013-12-09 22:03:00,
2013-12-09 17:08:00,34.7,30.9,30.13,SE,146,0.0,2.0,86,0.00,,,0.01,Wunderground v.1.15,2013-12-09 22:08:00,
2013-12-09 17:13:00,34.7,30.7,30.13,ESE,102,0.0,2.0,85,0.00,,,0.01,Wunderground v.1.15,2013-12-09 22:13:00,
2013-12-09 17:18:00,34.7,30.4,30.14,SE,126,0.0,2.0,84,0.00,,,0.01,Wunderground v.1.15,2013-12-09 22:18:00,
2013-12-09 17:23:00,34.7,30.4,30.14,ESE,111,0.0,0.0,84,0.00,,,0.01,Wunderground v.1.15,2013-12-09 22:23:00,
2013-12-09 17:28:00,34.6,30.6,30.14,SSW,197,0.0,3.0,85,0.00,,,0.01,Wunderground v.1.15,2013-12-09 22:28:00,
2013-12-09 17:33:00,34.6,30.3,30.14,West,263,0.0,3.0,84,0.00,,,0.01,Wunderground v.1.15,2013-12-09 22:33:00,
2013-12-09 17:39:00,34.6,29.7,30.14,ESE,117,1.0,4.0,82,0.00,,,0.01,Wunderground v.1.15,2013-12-09 22:39:00,
2013-12-09 17:44:00,34.7,29.5,30.14,North,5,1.0,3.0,81,0.00,,,0.01,Wunderground v.1.15,2013-12-09 22:44:00,
2013-12-09 17:49:00,34.7,29.8,30.15,East,98,0.0,3.0,82,0.00,,,0.01,Wunderground v.1.15,2013-12-09 22:49:00,
2013-12-09 17:54:00,34.6,29.7,30.15,SE,126,0.0,3.0,82,0.00,,,0.01,Wunderground v.1.15,2013-12-09 22:54:00,
2013-12-09 18:00:00,34.4,29.5,30.15,SE,137,0.0,0.0,82,0.00,,,0.01,Wunderground v.1.15,2013-12-09 23:00:00,
2013-12-09 18:06:00,34.3,29.7,30.15,NNW,347,1.0,3.0,83,0.00,,,0.01,Wunderground v.1.15,2013-12-09 23:06:00,
2013-12-09 18:11:00,34.3,29.1,30.16,South,175,1.0,1.0,81,0.00,,,0.01,Wunderground v.1.15,2013-12-09 23:11:00,
2013-12-09 18:17:00,34.3,29.4,30.15,South,182,1.0,1.0,82,0.00,,,0.01,Wunderground v.1.15,2013-12-09 23:17:00,
2013-12-09 18:22:00,34.3,29.4,30.15,ESE,120,1.0,1.0,82,0.00,,,0.01,Wunderground v.1.15,2013-12-09 23:22:00,
2013-12-09 18:27:00,34.3,29.4,30.15,NNW,335,1.0,1.0,82,0.00,,,0.01,Wunderground v.1.15,2013-12-09 23:27:00,
2013-12-09 18:33:00,34.1,29.2,30.15,NNE,15,0.0,0.0,82,0.00,,,0.01,Wunderground v.1.15,2013-12-09 23:33:00,
2013-12-09 18:38:00,34.1,29.2,30.15,SSE,152,0.0,1.0,82,0.00,,,0.01,Wunderground v.1.15,2013-12-09 23:38:00,
2013-12-09 18:43:00,34.1,29.2,30.15,South,172,0.0,0.0,82,0.00,,,0.01,Wunderground v.1.15,2013-12-09 23:43:00,
2013-12-09 18:48:00,34.0,29.1,30.15,SSE,166,0.0,0.0,82,0.00,,,0.01,Wunderground v.1.15,2013-12-09 23:48:00,
2013-12-09 18:54:00,33.9,29.0,30.15,SSE,153,0.0,3.0,82,0.00,,,0.01,Wunderground v.1.15,2013-12-09 23:54:00,
2013-12-09 18:59:00,33.9,29.0,30.16,South,186,0.0,3.0,82,0.00,,,0.01,Wunderground v.1.15,2013-12-09 23:59:00,
2013-12-09 19:04:00,33.8,28.9,30.16,SSE,157,0.0,1.0,82,0.00,,,0.01,Wunderground v.1.15,2013-12-10 00:04:00,
2013-12-09 19:10:00,33.7,28.8,30.16,SSE,156,0.0,0.0,82,0.00,,,0.01,Wunderground v.1.15,2013-12-10 00:10:00,
2013-12-09 19:15:00,33.7,28.8,30.16,SE,140,1.0,1.0,82,0.00,,,0.01,Wunderground v.1.15,2013-12-10 00:15:00,
2013-12-09 19:20:00,33.6,28.7,30.16,SE,140,0.0,0.0,82,0.00,,,0.01,Wunderground v.1.15,2013-12-10 00:20:00,
2013-12-09 19:25:00,33.5,28.6,30.16,SSE,167,0.0,3.0,82,0.00,,,0.01,Wunderground v.1.15,2013-12-10 00:25:00,
2013-12-09 19:31:00,33.4,28.2,30.17,ESE,117,1.0,3.0,81,0.00,,,0.01,Wunderground v.1.15,2013-12-10 00:31:00,
2013-12-09 19:36:00,33.4,28.2,30.17,ESE,118,1.0,3.0,81,0.00,,,0.01,Wunderground v.1.15,2013-12-10 00:36:00,
2013-12-09 19:42:00,33.3,28.1,30.17,SSE,150,1.0,2.0,81,0.00,,,0.01,Wunderground v.1.15,2013-12-10 00:42:00,
2013-12-09 19:47:00,33.3,28.1,30.17,SSE,150,0.0,2.0,81,0.00,,,0.01,Wunderground v.1.15,2013-12-10 00:47:00,
2013-12-09 19:52:00,33.2,28.0,30.17,SSE,168,1.0,1.0,81,0.00,,,0.01,Wunderground v.1.15,2013-12-10 00:52:00,
2013-12-09 19:58:00,33.1,27.9,30.18,SE,128,1.0,2.0,81,0.00,,,0.01,Wunderground v.1.15,2013-12-10 00:58:00,
2013-12-09 20:03:00,33.1,27.9,30.17,South,175,0.0,2.0,81,0.00,,,0.01,Wunderground v.1.15,2013-12-10 01:03:00,
2013-12-09 20:08:00,33.0,28.1,30.17,ESE,115,0.0,2.0,82,0.00,,,0.01,Wunderground v.1.15,2013-12-10 01:08:00,
2013-12-09 20:13:00,33.0,27.8,30.18,SSE,165,0.0,1.0,81,0.00,,,0.01,Wunderground v.1.15,2013-12-10 01:13:00,
2013-12-09 20:19:00,32.9,27.7,30.18,SE,128,1.0,1.0,81,0.00,,,0.01,Wunderground v.1.15,2013-12-10 01:19:00,
2013-12-09 20:24:00,32.9,28.0,30.18,ESE,111,0.0,1.0,82,0.00,,,0.01,Wunderground v.1.15,2013-12-10 01:24:00,
2013-12-09 20:29:00,32.8,27.9,30.18,ESE,111,0.0,1.0,82,0.00,,,0.01,Wunderground v.1.15,2013-12-10 01:29:00,
2013-12-09 20:35:00,32.8,27.6,30.17,ESE,123,0.0,1.0,81,0.00,,,0.01,Wunderground v.1.15,2013-12-10 01:35:00,
2013-12-09 20:40:00,32.7,27.5,30.17,ESE,123,0.0,0.0,81,0.00,,,0.01,Wunderground v.1.15,2013-12-10 01:40:00,
2013-12-09 20:45:00,32.6,27.4,30.17,SE,138,0.0,2.0,81,0.00,,,0.01,Wunderground v.1.15,2013-12-10 01:45:00,
2013-12-09 20:50:00,32.5,27.3,30.18,SE,138,0.0,0.0,81,0.00,,,0.01,Wunderground v.1.15,2013-12-10 01:50:00,
2013-12-09 20:55:00,32.5,27.3,30.17,ESE,111,0.0,1.0,81,0.00,,,0.01,Wunderground v.1.15,2013-12-10 01:55:00,
2013-12-09 21:01:00,32.4,27.2,30.17,ESE,111,0.0,0.0,81,0.00,,,0.01,Wunderground v.1.15,2013-12-10 02:01:00,
2013-12-09 21:07:00,32.4,27.2,30.17,SE,126,0.0,1.0,81,0.00,,,0.01,Wunderground v.1.15,2013-12-10 02:07:00,
2013-12-09 21:12:00,32.3,27.1,30.17,SE,126,0.0,1.0,81,0.00,,,0.01,Wunderground v.1.15,2013-12-10 02:12:00,
2013-12-09 21:17:00,32.2,27.0,30.17,SSE,148,0.0,2.0,81,0.00,,,0.01,Wunderground v.1.15,2013-12-10 02:17:00,
2013-12-09 21:22:00,32.1,26.9,30.17,ESE,105,0.0,0.0,81,0.00,,,0.01,Wunderground v.1.15,2013-12-10 02:22:00,
2013-12-09 21:27:00,32.0,26.5,30.17,ESE,105,0.0,0.0,80,0.00,,,0.01,Wunderground v.1.15,2013-12-10 02:27:00,
2013-12-09 21:33:00,31.9,26.4,30.17,ESE,115,0.0,0.0,80,0.00,,,0.01,Wunderground v.1.15,2013-12-10 02:33:00,
2013-12-09 21:38:00,31.9,26.7,30.16,ESE,115,0.0,0.0,81,0.00,,,0.01,Wunderground v.1.15,2013-12-10 02:38:00,
2013-12-09 21:43:00,31.8,26.3,30.16,SE,130,0.0,0.0,80,0.00,,,0.01,Wunderground v.1.15,2013-12-10 02:43:00,
2013-12-09 21:48:00,31.7,26.2,30.16,SE,132,0.0,0.0,80,0.00,,,0.01,Wunderground v.1.15,2013-12-10 02:48:00,
2013-12-09 21:54:00,31.7,26.2,30.17,SE,133,0.0,1.0,80,0.00,,,0.01,Wunderground v.1.15,2013-12-10 02:54:00,
2013-12-09 21:59:00,31.6,26.1,30.16,East,81,0.0,5.0,80,0.00,,,0.01,Wunderground v.1.15,2013-12-10 02:59:00,
2013-12-09 22:04:00,31.6,25.8,30.16,ESE,119,1.0,2.0,79,0.00,,,0.01,Wunderground v.1.15,2013-12-10 03:04:00,
2013-12-09 22:09:00,31.6,26.1,30.16,SE,142,1.0,2.0,80,0.00,,,0.01,Wunderground v.1.15,2013-12-10 03:09:00,
2013-12-09 22:14:00,31.5,25.7,30.16,ESE,115,1.0,1.0,79,0.00,,,0.01,Wunderground v.1.15,2013-12-10 03:14:00,
2013-12-09 22:20:00,31.4,25.6,30.15,ESE,102,1.0,1.0,79,0.00,,,0.01,Wunderground v.1.15,2013-12-10 03:20:00,
2013-12-09 22:25:00,31.4,25.6,30.16,East,80,0.0,1.0,79,0.00,,,0.01,Wunderground v.1.15,2013-12-10 03:25:00,
2013-12-09 22:30:00,31.3,25.8,30.16,South,184,1.0,1.0,80,0.00,,,0.01,Wunderground v.1.15,2013-12-10 03:30:00,
2013-12-09 22:36:00,31.3,25.8,30.16,East,92,0.0,1.0,80,0.00,,,0.01,Wunderground v.1.15,2013-12-10 03:36:00,
2013-12-09 22:42:00,31.3,25.8,30.16,ESE,109,0.0,2.0,80,0.00,,,0.01,Wunderground v.1.15,2013-12-10 03:42:00,
2013-12-09 22:47:00,31.3,25.8,30.16,SSE,148,0.0,2.0,80,0.00,,,0.01,Wunderground v.1.15,2013-12-10 03:47:00,
2013-12-09 22:52:00,31.2,25.7,30.15,SE,139,0.0,1.0,80,0.00,,,0.01,Wunderground v.1.15,2013-12-10 03:52:00,
2013-12-09 22:57:00,31.2,25.7,30.15,ESE,108,0.0,1.0,80,0.00,,,0.01,Wunderground v.1.15,2013-12-10 03:57:00,
2013-12-09 23:03:00,31.2,25.7,30.15,ESE,105,0.0,3.0,80,0.00,,,0.01,Wunderground v.1.15,2013-12-10 04:03:00,
2013-12-09 23:08:00,31.1,25.7,30.15,ESE,105,0.0,3.0,80,0.00,,,0.01,Wunderground v.1.15,2013-12-10 04:08:00,
2013-12-09 23:13:00,31.1,25.7,30.14,ESE,105,0.0,1.0,80,0.00,,,0.01,Wunderground v.1.15,2013-12-10 04:13:00,
2013-12-09 23:18:00,31.1,25.7,30.14,SE,124,0.0,2.0,80,0.00,,,0.01,Wunderground v.1.15,2013-12-10 04:18:00,
2013-12-09 23:24:00,31.1,26.0,30.13,SE,133,0.0,0.0,81,0.00,,,0.01,Wunderground v.1.15,2013-12-10 04:24:00,
2013-12-09 23:29:00,31.0,25.9,30.14,SE,133,0.0,0.0,81,0.00,,,0.01,Wunderground v.1.15,2013-12-10 04:29:00,
2013-12-09 23:34:00,31.0,25.9,30.13,SE,133,0.0,0.0,81,0.00,,,0.01,Wunderground v.1.15,2013-12-10 04:34:00,
2013-12-09 23:39:00,31.0,26.1,30.14,SE,133,0.0,0.0,82,0.00,,,0.01,Wunderground v.1.15,2013-12-10 04:39:00,
2013-12-09 23:44:00,30.9,25.8,30.14,SE,132,0.0,1.0,81,0.00,,,0.01,Wunderground v.1.15,2013-12-10 04:44:00,
2013-12-09 23:50:00,30.9,25.8,30.13,SE,132,0.0,0.0,81,0.00,,,0.01,Wunderground v.1.15,2013-12-10 04:50:00,
2013-12-09 23:55:00,30.9,25.8,30.14,SE,132,0.0,0.0,81,0.00,,,0.01,Wunderground v.1.15,2013-12-10 04:55:00,